createdAt,value
2018-05-11T00:00:20.129Z,91.40
2018-05-11T00:02:49.856Z,91.30
2018-05-11T00:05:20.262Z,91.60
2018-05-11T00:07:51.061Z,91.60
2018-05-11T00:10:21.152Z,91.50
2018-05-11T00:12:50.999Z,91.30
2018-05-11T00:15:21.683Z,91.30
2018-05-11T00:17:51.840Z,91.60
2018-05-11T00:20:21.528Z,91.80
2018-05-11T00:22:51.654Z,91.90
2018-05-11T00:25:21.502Z,91.80
2018-05-11T00:27:51.509Z,91.60
2018-05-11T00:30:21.918Z,91.30
2018-05-11T00:32:52.035Z,91.30
2018-05-11T00:35:21.591Z,91.40
2018-05-11T00:37:52.829Z,91.30
2018-05-11T00:40:22.749Z,91.40
2018-05-11T00:42:53.736Z,91.60
2018-05-11T00:45:23.774Z,91.90
2018-05-11T00:47:53.316Z,91.60
2018-05-11T00:50:24.863Z,91.90
2018-05-11T00:52:54.667Z,91.90
2018-05-11T00:55:42.815Z,92.10
2018-05-11T00:58:12.550Z,92.10
2018-05-11T01:00:43.143Z,92.30
2018-05-11T01:03:14.088Z,92.30
2018-05-11T01:05:43.784Z,92.20
2018-05-11T01:08:15.037Z,92.30
2018-05-11T01:10:44.716Z,92.30
2018-05-11T01:13:14.268Z,92.10
2018-05-11T01:15:43.958Z,92.00
2018-05-11T01:18:13.704Z,91.90
2018-05-11T01:20:44.038Z,91.60
2018-05-11T01:23:15.221Z,91.50
2018-05-11T01:25:44.817Z,91.50
2018-05-11T01:28:14.518Z,91.80
2018-05-11T01:30:44.898Z,92.00
2018-05-11T01:33:16.596Z,92.10
2018-05-11T01:35:47.423Z,92.10
2018-05-11T01:38:20.440Z,92.40
2018-05-11T01:40:50.709Z,91.70
2018-05-11T01:43:21.614Z,91.90
2018-05-11T01:45:52.367Z,92.20
2018-05-11T01:48:22.089Z,92.20
2018-05-11T01:50:52.288Z,92.30
2018-05-11T01:53:22.114Z,92.70
2018-05-11T01:55:52.946Z,93.10
2018-05-11T01:58:23.290Z,93.10
2018-05-11T02:00:53.284Z,92.90
2018-05-11T02:03:24.549Z,93.00
2018-05-11T02:05:54.391Z,93.60
2018-05-11T02:08:24.039Z,92.90
2018-05-11T02:10:54.350Z,93.10
2018-05-11T02:13:24.723Z,93.20
2018-05-11T02:15:56.295Z,93.20
2018-05-11T02:18:26.799Z,93.20
2018-05-11T02:20:56.378Z,93.20
2018-05-11T02:23:26.747Z,93.40
2018-05-11T02:25:56.528Z,93.40
2018-05-11T02:28:26.228Z,93.30
2018-05-11T02:30:56.570Z,93.60
2018-05-11T02:33:26.654Z,93.80
2018-05-11T02:35:56.529Z,93.60
2018-05-11T02:38:26.660Z,93.70
2018-05-11T02:40:56.213Z,93.80
2018-05-11T02:43:26.049Z,94.00
2018-05-11T02:45:57.292Z,93.40
2018-05-11T02:48:27.473Z,93.40
2018-05-11T02:50:57.295Z,93.20
2018-05-11T02:53:27.058Z,93.30
2018-05-11T02:55:56.776Z,93.20
2018-05-11T02:58:26.494Z,93.10
2018-05-11T03:00:56.405Z,92.90
2018-05-11T03:03:26.001Z,93.00
2018-05-11T03:05:57.578Z,93.20
2018-05-11T03:08:28.447Z,93.30
2018-05-11T03:10:58.412Z,93.30
2018-05-11T03:13:29.554Z,93.40
2018-05-11T03:15:59.483Z,93.40
2018-05-11T03:18:29.214Z,93.50
2018-05-11T03:20:58.874Z,93.50
2018-05-11T03:23:28.414Z,93.30
2018-05-11T03:25:57.951Z,93.10
2018-05-11T03:28:28.437Z,93.00
2018-05-11T03:30:58.139Z,93.00
2018-05-11T03:33:28.063Z,93.10
2018-05-11T03:35:58.671Z,93.20
2018-05-11T03:38:28.243Z,93.10
2018-05-11T03:40:58.049Z,93.00
2018-05-11T03:43:28.317Z,93.30
2018-05-11T03:45:58.352Z,93.30
2018-05-11T03:48:28.939Z,93.30
2018-05-11T03:50:58.512Z,93.20
2018-05-11T03:53:28.069Z,93.20
2018-05-11T03:55:57.624Z,93.40
2018-05-11T03:58:27.835Z,93.30
2018-05-11T04:00:58.598Z,93.30
2018-05-11T04:03:46.075Z,93.20
2018-05-11T04:06:33.689Z,93.30
2018-05-11T04:09:04.207Z,93.40
2018-05-11T04:11:33.847Z,93.30
2018-05-11T04:14:03.581Z,93.60
2018-05-11T04:16:33.767Z,93.60
2018-05-11T04:19:03.424Z,93.60
2018-05-11T04:21:32.937Z,93.70
2018-05-11T04:24:02.450Z,93.80
2018-05-11T04:26:31.991Z,93.50
2018-05-11T04:29:08.960Z,93.00
2018-05-11T04:31:39.429Z,92.50
2018-05-11T04:34:08.975Z,92.40
2018-05-11T04:36:39.475Z,93.20
2018-05-11T04:39:09.319Z,93.10
2018-05-11T04:41:38.810Z,93.50
2018-05-11T04:44:08.450Z,93.20
2018-05-11T04:46:38.122Z,93.80
2018-05-11T04:49:07.841Z,93.50
2018-05-11T04:51:38.997Z,92.90
2018-05-11T04:54:08.600Z,92.40
2018-05-11T04:56:38.282Z,91.40
2018-05-11T04:59:07.876Z,90.00
2018-05-11T05:01:38.288Z,86.20
2018-05-11T05:04:07.885Z,86.20
2018-05-11T05:06:37.475Z,85.50
2018-05-11T05:09:07.143Z,84.60
2018-05-11T05:11:37.061Z,83.30
2018-05-11T05:14:06.605Z,82.30
2018-05-11T05:16:37.197Z,79.80
2018-05-11T05:19:06.812Z,79.80
2018-05-11T05:21:36.303Z,78.20
2018-05-11T05:24:06.813Z,77.70
2018-05-11T05:26:36.657Z,76.60
2018-05-11T05:29:23.960Z,75.00
2018-05-11T05:31:57.783Z,75.10
2018-05-11T05:34:27.348Z,71.70
2018-05-11T05:36:58.567Z,73.10
2018-05-11T05:39:28.186Z,71.50
2018-05-11T05:42:00.385Z,71.00
2018-05-11T05:44:30.014Z,70.50
2018-05-11T05:46:59.940Z,69.30
2018-05-11T05:49:30.318Z,71.10
2018-05-11T05:52:01.958Z,67.60
2018-05-11T05:54:31.545Z,67.40
2018-05-11T05:57:02.098Z,68.40
2018-05-11T05:59:32.444Z,68.40
2018-05-11T06:02:02.786Z,68.10
2018-05-11T06:04:35.497Z,68.10
2018-05-11T06:07:05.223Z,66.00
2018-05-11T06:09:34.744Z,67.80
2018-05-11T06:12:05.180Z,67.20
2018-05-11T06:14:36.644Z,64.60
2018-05-11T06:17:06.222Z,64.40
2018-05-11T06:19:36.727Z,57.60
2018-05-11T06:22:06.589Z,57.50
2018-05-11T06:24:36.520Z,60.20
2018-05-11T06:27:06.296Z,56.10
2018-05-11T06:29:36.668Z,50.60
2018-05-11T06:32:06.518Z,52.70
2018-05-11T06:34:37.149Z,54.30
2018-05-11T06:37:06.664Z,54.30
2018-05-11T06:39:37.451Z,52.70
2018-05-11T06:42:07.086Z,53.40
2018-05-11T06:44:36.719Z,51.50
2018-05-11T06:47:06.239Z,52.10
2018-05-11T06:49:35.905Z,51.70
2018-05-11T06:52:05.503Z,48.30
2018-05-11T06:54:35.012Z,49.10
2018-05-11T06:57:04.530Z,45.80
2018-05-11T06:59:34.134Z,45.70
2018-05-11T07:02:03.863Z,44.50
2018-05-11T07:04:34.079Z,47.60
2018-05-11T07:07:03.603Z,44.10
2018-05-11T07:09:33.248Z,46.10
2018-05-11T07:12:04.552Z,48.90
2018-05-11T07:14:34.175Z,48.90
2018-05-11T07:17:04.135Z,49.40
2018-05-11T07:19:34.095Z,48.60
2018-05-11T07:22:03.773Z,49.10
2018-05-11T07:24:34.566Z,39.50
2018-05-11T07:27:04.344Z,39.50
2018-05-11T07:29:33.842Z,34.80
2018-05-11T07:32:03.404Z,34.20
2018-05-11T07:34:33.076Z,34.00
2018-05-11T07:37:02.669Z,30.10
2018-05-11T07:39:33.511Z,30.50
2018-05-11T07:42:03.499Z,31.00
2018-05-11T07:44:33.007Z,30.60
2018-05-11T07:47:02.579Z,30.90
2018-05-11T07:49:32.243Z,31.20
2018-05-11T07:52:01.854Z,31.00
2018-05-11T07:54:31.572Z,31.90
2018-05-11T07:57:01.140Z,31.70
2018-05-11T07:59:30.836Z,31.30
2018-05-11T08:02:00.466Z,31.30
2018-05-11T08:04:30.210Z,37.00
2018-05-11T08:06:59.894Z,35.10
2018-05-11T08:09:29.415Z,32.80
2018-05-11T08:11:59.138Z,33.00
2018-05-11T08:14:28.875Z,37.80
2018-05-11T08:16:58.574Z,37.60
2018-05-11T08:19:29.581Z,39.30
2018-05-11T08:22:02.847Z,42.20
2018-05-11T08:24:32.446Z,43.70
2018-05-11T08:27:02.972Z,31.90
2018-05-11T08:29:33.439Z,30.70
2018-05-11T08:32:02.969Z,30.80
2018-05-11T08:34:32.883Z,30.30
2018-05-11T08:37:03.634Z,33.10
2018-05-11T08:39:33.223Z,36.10
2018-05-11T08:42:02.965Z,35.90
2018-05-11T08:44:33.345Z,38.80
2018-05-11T08:47:14.526Z,38.90
2018-05-11T08:49:44.323Z,38.50
2018-05-11T08:52:14.076Z,36.40
2018-05-11T08:54:44.089Z,37.20
2018-05-11T08:57:14.683Z,42.50
2018-05-11T08:59:44.201Z,42.00
2018-05-11T09:02:14.556Z,38.80
2018-05-11T09:04:44.344Z,37.80
2018-05-11T09:07:15.339Z,40.20
2018-05-11T09:09:45.607Z,39.40
2018-05-11T09:12:15.985Z,44.10
2018-05-11T09:14:46.590Z,44.70
2018-05-11T09:17:16.359Z,44.70
2018-05-11T09:19:47.754Z,47.20
2018-05-11T09:22:17.248Z,48.80
2018-05-11T09:24:48.132Z,50.30
2018-05-11T09:27:18.901Z,45.60
2018-05-11T09:29:48.414Z,45.60
2018-05-11T09:32:18.536Z,46.10
2018-05-11T09:34:48.265Z,47.60
2018-05-11T09:37:18.074Z,49.40
2018-05-11T09:39:47.911Z,48.50
2018-05-11T09:42:18.408Z,46.10
2018-05-11T09:44:49.850Z,44.80
2018-05-11T09:47:20.565Z,42.40
2018-05-11T09:49:52.248Z,50.10
2018-05-11T09:52:21.975Z,50.20
2018-05-11T09:55:01.599Z,49.50
2018-05-11T09:57:31.843Z,45.40
2018-05-11T10:00:01.733Z,45.40
2018-05-11T10:02:31.283Z,47.90
2018-05-11T10:05:00.782Z,46.40
2018-05-11T10:07:30.296Z,50.40
2018-05-11T10:09:59.771Z,51.20
2018-05-11T10:12:29.505Z,50.40
2018-05-11T10:14:59.852Z,48.10
2018-05-11T10:17:29.732Z,50.60
2018-05-11T10:20:00.701Z,51.80
2018-05-11T10:22:30.488Z,49.40
2018-05-11T10:25:00.300Z,48.10
2018-05-11T10:27:30.513Z,45.20
2018-05-11T10:30:04.036Z,47.90
2018-05-11T10:32:34.355Z,47.40
2018-05-11T10:35:04.151Z,47.40
2018-05-11T10:37:33.790Z,51.10
2018-05-11T10:40:03.556Z,51.00
2018-05-11T10:42:33.286Z,47.00
2018-05-11T10:45:03.991Z,51.60
2018-05-11T10:47:33.517Z,55.60
2018-05-11T10:50:03.236Z,48.60
2018-05-11T10:52:33.707Z,48.50
2018-05-11T10:55:05.028Z,50.20
2018-05-11T10:57:35.131Z,50.20
2018-05-11T11:00:04.960Z,43.90
2018-05-11T11:02:35.274Z,48.80
2018-05-11T11:05:04.805Z,48.90
2018-05-11T11:07:34.387Z,51.50
2018-05-11T11:10:05.309Z,54.20
2018-05-11T11:12:35.197Z,50.70
2018-05-11T11:15:04.954Z,49.10
2018-05-11T11:17:34.574Z,45.90
2018-05-11T11:20:04.260Z,42.90
2018-05-11T11:22:35.175Z,44.40
2018-05-11T11:25:04.721Z,43.90
2018-05-11T11:27:34.235Z,41.00
2018-05-11T11:30:04.853Z,36.90
2018-05-11T11:32:34.379Z,37.90
2018-05-11T11:35:06.192Z,44.00
2018-05-11T11:37:36.002Z,44.10
2018-05-11T11:40:05.736Z,43.30
2018-05-11T11:42:35.435Z,38.90
2018-05-11T11:45:05.040Z,37.10
2018-05-11T11:47:34.892Z,34.20
2018-05-11T11:50:04.721Z,35.10
2018-05-11T11:52:34.500Z,32.40
2018-05-11T11:55:04.272Z,32.60
2018-05-11T11:57:34.559Z,40.00
2018-05-11T12:00:04.242Z,40.00
2018-05-11T12:02:34.092Z,48.20
2018-05-11T12:05:03.724Z,51.90
2018-05-11T12:07:33.703Z,60.00
2018-05-11T12:10:04.422Z,64.30
2018-05-11T12:12:34.953Z,64.20
2018-05-11T12:15:09.796Z,64.90
2018-05-11T12:17:44.131Z,67.10
2018-05-11T12:20:16.560Z,73.90
2018-05-11T12:22:46.146Z,73.80
2018-05-11T12:25:17.951Z,74.40
2018-05-11T12:27:50.229Z,77.60
2018-05-11T12:30:20.141Z,80.40
2018-05-11T12:32:50.713Z,81.10
2018-05-11T12:35:20.322Z,81.00
2018-05-11T12:37:51.113Z,80.90
2018-05-11T12:40:20.924Z,80.80
2018-05-11T12:42:51.142Z,77.20
2018-05-11T12:45:20.698Z,79.40
2018-05-11T12:47:50.623Z,80.90
2018-05-11T12:50:21.193Z,79.00
2018-05-11T12:52:51.224Z,79.00
2018-05-11T12:55:21.030Z,82.20
2018-05-11T12:57:52.439Z,81.00
2018-05-11T13:00:23.078Z,75.80
2018-05-11T13:02:53.649Z,76.80
2018-05-11T13:05:23.542Z,76.80
2018-05-11T13:07:54.096Z,73.70
2018-05-11T13:10:23.906Z,73.60
2018-05-11T13:12:53.443Z,75.20
2018-05-11T13:15:23.131Z,72.50
2018-05-11T13:17:54.034Z,69.90
2018-05-11T13:20:23.992Z,70.00
2018-05-11T13:22:53.737Z,70.90
2018-05-11T13:25:23.488Z,71.50
2018-05-11T13:27:53.020Z,71.10
2018-05-11T13:30:22.581Z,69.30
2018-05-11T13:32:52.585Z,69.50
2018-05-11T13:35:23.383Z,67.20
2018-05-11T13:37:53.898Z,68.20
2018-05-11T13:40:25.137Z,65.70
2018-05-11T13:42:54.909Z,65.60
2018-05-11T13:45:24.867Z,66.10
2018-05-11T13:47:54.630Z,65.10
2018-05-11T13:50:24.814Z,63.30
2018-05-11T13:52:54.352Z,63.90
2018-05-11T13:55:24.124Z,67.10
2018-05-11T13:57:54.994Z,61.30
2018-05-11T14:00:24.893Z,62.00
2018-05-11T14:02:54.695Z,63.40
2018-05-11T14:05:24.407Z,60.20
2018-05-11T14:08:06.188Z,61.50
2018-05-11T14:10:35.909Z,56.90
2018-05-11T14:13:05.777Z,61.50
2018-05-11T14:15:37.548Z,61.10
2018-05-11T14:18:07.396Z,60.90
2018-05-11T14:20:37.736Z,59.30
2018-05-11T14:23:07.283Z,59.20
2018-05-11T14:25:37.039Z,61.50
2018-05-11T14:28:06.725Z,61.00
2018-05-11T14:30:36.875Z,61.00
2018-05-11T14:33:06.542Z,60.90
2018-05-11T14:35:36.137Z,60.30
2018-05-11T14:38:05.975Z,59.30
2018-05-11T14:40:35.571Z,57.50
2018-05-11T14:43:06.845Z,58.50
2018-05-11T14:45:38.047Z,56.70
2018-05-11T14:48:08.332Z,48.60
2018-05-11T14:50:38.013Z,48.40
2018-05-11T14:53:08.161Z,48.40
2018-05-11T14:55:38.590Z,38.60
2018-05-11T14:58:08.265Z,38.40
2018-05-11T15:00:37.899Z,36.20
2018-05-11T15:03:07.465Z,38.30
2018-05-11T15:05:37.010Z,36.30
2018-05-11T15:08:06.730Z,39.30
2018-05-11T15:10:36.963Z,43.00
2018-05-11T15:13:06.628Z,38.10
2018-05-11T15:15:36.873Z,39.40
2018-05-11T15:18:08.101Z,40.30
2018-05-11T15:20:37.625Z,40.30
2018-05-11T15:23:07.355Z,43.90
2018-05-11T15:25:37.058Z,44.50
2018-05-11T15:28:06.736Z,43.00
2018-05-11T15:30:36.357Z,44.90
2018-05-11T15:33:05.970Z,45.00
2018-05-11T15:35:35.901Z,46.80
2018-05-11T15:38:05.801Z,45.20
2018-05-11T15:40:36.266Z,43.40
2018-05-11T15:43:06.087Z,46.00
2018-05-11T15:45:35.646Z,49.30
2018-05-11T15:48:12.868Z,53.10
2018-05-11T15:50:43.758Z,52.30
2018-05-11T15:53:13.357Z,54.00
2018-05-11T15:55:44.274Z,52.60
2018-05-11T15:58:13.968Z,53.40
2018-05-11T16:00:43.759Z,55.80
2018-05-11T16:03:13.468Z,57.20
2018-05-11T16:05:43.074Z,57.80
2018-05-11T16:08:12.893Z,59.40
2018-05-11T16:10:42.508Z,60.30
2018-05-11T16:13:12.025Z,59.90
2018-05-11T16:15:42.197Z,59.10
2018-05-11T16:18:12.579Z,60.60
2018-05-11T16:20:42.281Z,60.60
2018-05-11T16:23:13.826Z,61.70
2018-05-11T16:25:44.250Z,61.70
2018-05-11T16:28:13.848Z,62.20
2018-05-11T16:30:43.543Z,62.00
2018-05-11T16:33:13.433Z,62.00
2018-05-11T16:35:43.793Z,61.90
2018-05-11T16:38:13.304Z,61.80
2018-05-11T16:40:42.874Z,58.80
2018-05-11T16:43:12.509Z,59.40
2018-05-11T16:45:42.361Z,61.20
2018-05-11T16:48:11.952Z,61.50
2018-05-11T16:50:41.765Z,63.10
2018-05-11T16:53:22.506Z,64.20
2018-05-11T16:55:52.539Z,65.10
2018-05-11T16:58:22.329Z,64.30
2018-05-11T17:00:52.682Z,65.20
2018-05-11T17:03:23.038Z,64.70
2018-05-11T17:05:53.312Z,64.70
2018-05-11T17:08:23.298Z,65.10
2018-05-11T17:10:55.015Z,66.90
2018-05-11T17:13:24.591Z,66.80
2018-05-11T17:15:54.113Z,65.30
2018-05-11T17:18:23.730Z,65.50
2018-05-11T17:20:55.393Z,63.80
2018-05-11T17:23:26.621Z,63.80
2018-05-11T17:25:57.238Z,65.80
2018-05-11T17:28:26.992Z,65.80
2018-05-11T17:30:56.648Z,65.30
2018-05-11T17:33:26.196Z,65.50
2018-05-11T17:35:56.043Z,65.90
2018-05-11T17:38:27.736Z,65.10
2018-05-11T17:40:58.897Z,65.00
2018-05-11T17:43:30.809Z,65.90
2018-05-11T17:46:00.894Z,65.80
2018-05-11T17:48:30.979Z,64.90
2018-05-11T17:51:03.108Z,67.00
2018-05-11T17:53:34.004Z,67.30
2018-05-11T17:56:04.533Z,67.30
2018-05-11T17:58:36.338Z,66.40
2018-05-11T18:01:07.063Z,66.00
2018-05-11T18:03:36.709Z,66.00
2018-05-11T18:06:07.154Z,65.60
2018-05-11T18:08:36.721Z,65.60
2018-05-11T18:11:07.607Z,64.90
2018-05-11T18:13:37.710Z,65.10
2018-05-11T18:16:08.964Z,65.70
2018-05-11T18:18:39.071Z,65.90
2018-05-11T18:21:10.360Z,67.60
2018-05-11T18:23:41.704Z,69.20
2018-05-11T18:26:12.478Z,70.00
2018-05-11T18:28:43.306Z,71.40
2018-05-11T18:31:20.418Z,70.70
2018-05-11T18:33:51.480Z,70.70
2018-05-11T18:36:21.409Z,70.90
2018-05-11T18:38:51.354Z,70.80
2018-05-11T18:41:21.196Z,70.80
2018-05-11T18:43:51.460Z,71.50
2018-05-11T18:46:21.422Z,72.10
2018-05-11T18:48:51.627Z,71.30
2018-05-11T18:51:27.813Z,71.80
2018-05-11T18:54:20.728Z,71.80
2018-05-11T18:57:12.863Z,70.60
2018-05-11T19:00:06.873Z,70.50
2018-05-11T19:02:40.987Z,71.30
2018-05-11T19:05:11.800Z,72.30
2018-05-11T19:07:41.351Z,73.40
2018-05-11T19:10:11.668Z,73.50
2018-05-11T19:13:08.331Z,73.90
2018-05-11T19:15:39.853Z,74.00
2018-05-11T19:18:09.982Z,74.00
2018-05-11T19:20:39.883Z,73.00
2018-05-11T19:23:18.342Z,73.00
2018-05-11T19:25:49.910Z,73.60
2018-05-11T19:28:19.957Z,73.60
2018-05-11T19:30:49.746Z,73.80
2018-05-11T19:33:19.559Z,73.60
2018-05-11T19:35:49.653Z,73.80
2018-05-11T19:38:19.348Z,74.00
2018-05-11T19:40:50.743Z,73.80
2018-05-11T19:43:22.439Z,75.00
2018-05-11T19:45:52.438Z,74.30
2018-05-11T19:48:25.903Z,74.40
2018-05-11T19:50:55.865Z,74.80
2018-05-11T19:53:26.571Z,75.40
2018-05-11T19:55:56.412Z,75.30
2018-05-11T19:58:26.067Z,75.90
2018-05-11T20:00:55.729Z,76.40
2018-05-11T20:03:26.919Z,76.80
2018-05-11T20:05:56.501Z,77.30
2018-05-11T20:08:26.724Z,77.10
2018-05-11T20:10:57.221Z,78.00
2018-05-11T20:13:26.746Z,77.90
2018-05-11T20:15:56.421Z,78.20
2018-05-11T20:18:28.793Z,78.40
2018-05-11T20:21:04.949Z,78.20
2018-05-11T20:23:34.856Z,78.20
2018-05-11T20:26:05.067Z,78.60
2018-05-11T20:28:35.209Z,78.90
2018-05-11T20:31:08.069Z,79.60
2018-05-11T20:33:38.559Z,79.60
2018-05-11T20:36:08.699Z,79.50
2018-05-11T20:38:52.233Z,79.50
2018-05-11T20:41:22.408Z,79.30
2018-05-11T20:43:53.084Z,79.50
2018-05-11T20:46:22.845Z,79.90
2018-05-11T20:48:55.200Z,80.10
2018-05-11T20:51:25.242Z,80.20
2018-05-11T20:53:55.223Z,80.60
2018-05-11T20:56:26.366Z,81.20
2018-05-11T20:58:56.748Z,81.10
2018-05-11T21:01:27.649Z,82.50
2018-05-11T21:03:57.220Z,82.40
2018-05-11T21:06:28.386Z,83.20
2018-05-11T21:08:58.266Z,83.60
2018-05-11T21:22:14.674Z,84.80
2018-05-11T21:24:45.113Z,86.60
2018-05-11T21:27:15.955Z,86.90
2018-05-11T21:29:45.655Z,86.80
2018-05-11T21:32:16.197Z,87.30
2018-05-11T21:34:46.054Z,87.20
2018-05-11T21:37:15.826Z,87.60
2018-05-11T21:39:45.363Z,88.70
2018-05-11T21:42:17.904Z,87.60
2018-05-11T21:44:47.637Z,87.20
2018-05-11T21:47:17.516Z,87.50
2018-05-11T21:49:47.056Z,88.10
2018-05-11T21:52:18.813Z,87.90
2018-05-11T21:54:50.080Z,87.70
2018-05-11T21:57:24.480Z,87.70
2018-05-11T21:59:56.473Z,87.50
2018-05-11T22:02:26.387Z,87.40
2018-05-11T22:04:55.918Z,87.20
2018-05-11T22:07:25.750Z,87.50
2018-05-11T22:10:04.143Z,87.50
2018-05-11T22:12:34.772Z,87.50
2018-05-11T22:15:04.634Z,87.90
2018-05-11T22:17:34.734Z,87.30
2018-05-11T22:20:05.579Z,87.20
2018-05-11T22:22:36.054Z,85.40
2018-05-11T22:25:06.576Z,85.30
2018-05-11T22:27:36.166Z,85.00
2018-05-11T22:30:06.096Z,85.10
2018-05-11T22:32:35.678Z,85.10
2018-05-11T22:35:05.379Z,85.60
2018-05-11T22:37:38.068Z,85.50
2018-05-11T22:40:10.446Z,85.70
2018-05-11T22:42:41.010Z,86.20
2018-05-11T22:45:10.544Z,86.00
2018-05-11T22:47:40.119Z,86.70
2018-05-11T22:50:09.931Z,87.20
2018-05-11T22:52:40.365Z,87.40
2018-05-11T22:55:10.545Z,87.90
2018-05-11T22:57:40.186Z,88.10
2018-05-11T23:00:11.128Z,87.90
2018-05-11T23:02:41.921Z,87.70
2018-05-11T23:05:11.681Z,87.80
2018-05-11T23:07:42.572Z,86.80
2018-05-11T23:10:15.342Z,86.70
2018-05-11T23:12:46.442Z,88.40
2018-05-11T23:15:17.984Z,88.40
2018-05-11T23:17:48.277Z,88.90
2018-05-11T23:20:19.445Z,88.50
2018-05-11T23:22:50.424Z,88.50
2018-05-11T23:25:20.234Z,89.50
2018-05-11T23:27:50.120Z,90.10
2018-05-11T23:30:19.679Z,89.90
2018-05-11T23:32:50.788Z,89.60
2018-05-11T23:35:20.510Z,89.50
2018-05-11T23:37:50.964Z,89.60
2018-05-11T23:40:21.470Z,89.10
2018-05-11T23:42:51.292Z,89.00
2018-05-11T23:45:21.206Z,89.10
2018-05-11T23:47:52.540Z,88.60
2018-05-11T23:50:22.246Z,88.50
2018-05-11T23:52:53.091Z,89.00
2018-05-11T23:55:22.683Z,89.50
2018-05-11T23:57:52.890Z,89.90
